Time,TemperatureF,DewpointF,PressureIn,WindDirection,WindDirectionDegrees,WindSpeedMPH,WindSpeedGustMPH,Humidity,HourlyPrecipIn,Conditions,Clouds,dailyrainin,SolarRadiationWatts/m^2,SoftwareType,DateUTC
2013-10-17 00:01:00,56.4,54.9,29.92,SSW,205,2.0,6.0,95,0.00,,,0.00,0,HR-IXPWINDi_r2_v1.2.,2013-10-17 04:01:00,
2013-10-17 00:06:00,56.4,54.9,29.91,South,188,3.0,6.0,95,0.00,,,0.00,0,HR-IXPWINDi_r2_v1.2.,2013-10-17 04:06:00,
2013-10-17 00:12:00,56.2,54.7,29.91,South,184,1.0,4.0,95,0.00,,,0.00,0,HR-IXPWINDi_r2_v1.2.,2013-10-17 04:12:00,
2013-10-17 00:17:00,56.2,54.7,29.91,South,184,0.0,4.0,95,0.00,,,0.00,0,HR-IXPWINDi_r2_v1.2.,2013-10-17 04:17:00,
2013-10-17 00:22:00,56.1,54.6,29.91,South,184,0.0,3.0,95,0.00,,,0.00,0,HR-IXPWINDi_r2_v1.2.,2013-10-17 04:22:00,
2013-10-17 00:27:00,56.2,54.7,29.92,WSW,246,3.0,4.0,95,0.00,,,0.00,0,HR-IXPWINDi_r2_v1.2.,2013-10-17 04:27:00,
2013-10-17 00:32:00,56.2,54.7,29.92,SW,225,4.0,7.0,95,0.00,,,0.00,0,HR-IXPWINDi_r2_v1.2.,2013-10-17 04:32:00,
2013-10-17 00:37:00,56.2,54.7,29.92,South,190,4.0,7.0,95,0.00,,,0.00,0,HR-IXPWINDi_r2_v1.2.,2013-10-17 04:37:00,
2013-10-17 00:43:00,56.3,54.8,29.92,SSW,200,6.0,6.0,95,0.00,,,0.00,0,HR-IXPWINDi_r2_v1.2.,2013-10-17 04:43:00,
2013-10-17 00:47:00,56.4,54.9,29.92,SW,226,4.0,6.0,95,0.00,,,0.00,0,HR-IXPWINDi_r2_v1.2.,2013-10-17 04:47:00,
2013-10-17 00:53:00,56.3,54.8,29.92,SSW,212,5.0,6.0,95,0.00,,,0.00,0,HR-IXPWINDi_r2_v1.2.,2013-10-17 04:53:00,
2013-10-17 00:58:00,56.4,54.9,29.92,WSW,244,3.0,6.0,95,0.00,,,0.00,0,HR-IXPWINDi_r2_v1.2.,2013-10-17 04:58:00,
2013-10-17 01:04:00,56.5,55.3,29.91,SW,226,5.0,6.0,96,0.00,,,0.00,0,HR-IXPWINDi_r2_v1.2.,2013-10-17 05:04:00,
2013-10-17 01:09:00,56.5,55.3,29.92,WSW,246,4.0,7.0,96,0.00,,,0.00,0,HR-IXPWINDi_r2_v1.2.,2013-10-17 05:09:00,
2013-10-17 01:14:00,56.4,54.9,29.91,SW,223,2.0,7.0,95,0.00,,,0.00,0,HR-IXPWINDi_r2_v1.2.,2013-10-17 05:14:00,
2013-10-17 01:20:00,56.4,54.9,29.91,SW,232,3.0,6.0,95,0.00,,,0.00,0,HR-IXPWINDi_r2_v1.2.,2013-10-17 05:20:00,
2013-10-17 01:25:00,56.5,55.0,29.90,SW,224,2.0,5.0,95,0.00,,,0.00,0,HR-IXPWINDi_r2_v1.2.,2013-10-17 05:25:00,
2013-10-17 01:30:00,56.4,54.9,29.90,SSW,213,3.0,4.0,95,0.00,,,0.00,0,HR-IXPWINDi_r2_v1.2.,2013-10-17 05:30:00,
2013-10-17 01:35:00,56.4,54.9,29.90,SSW,213,0.0,4.0,95,0.00,,,0.00,0,HR-IXPWINDi_r2_v1.2.,2013-10-17 05:35:00,
2013-10-17 01:40:00,56.4,54.9,29.90,SSW,213,1.0,4.0,95,0.00,,,0.00,0,HR-IXPWINDi_r2_v1.2.,2013-10-17 05:40:00,
2013-10-17 01:45:00,56.3,54.8,29.90,SSW,213,0.0,1.0,95,0.00,,,0.00,0,HR-IXPWINDi_r2_v1.2.,2013-10-17 05:45:00,
2013-10-17 01:51:00,56.4,54.9,29.90,South,176,0.0,2.0,95,0.00,,,0.00,0,HR-IXPWINDi_r2_v1.2.,2013-10-17 05:51:00,
2013-10-17 01:56:00,56.4,54.9,29.90,South,170,1.0,3.0,95,0.00,,,0.00,0,HR-IXPWINDi_r2_v1.2.,2013-10-17 05:56:00,
2013-10-17 02:01:00,56.4,54.9,29.90,SSW,198,4.0,6.0,95,0.00,,,0.00,0,HR-IXPWINDi_r2_v1.2.,2013-10-17 06:01:00,
2013-10-17 02:06:00,56.5,55.0,29.90,SSW,193,4.0,6.0,95,0.00,,,0.00,0,HR-IXPWINDi_r2_v1.2.,2013-10-17 06:06:00,
2013-10-17 02:11:00,56.4,54.9,29.89,South,188,6.0,7.0,95,0.00,,,0.00,0,HR-IXPWINDi_r2_v1.2.,2013-10-17 06:11:00,
2013-10-17 02:17:00,56.4,54.9,29.89,SSW,203,3.0,7.0,95,0.00,,,0.00,0,HR-IXPWINDi_r2_v1.2.,2013-10-17 06:17:00,
2013-10-17 02:22:00,56.4,54.9,29.89,SW,217,3.0,7.0,95,0.00,,,0.00,0,HR-IXPWINDi_r2_v1.2.,2013-10-17 06:22:00,
2013-10-17 02:27:00,56.4,54.9,29.89,SSW,213,2.0,5.0,95,0.00,,,0.00,0,HR-IXPWINDi_r2_v1.2.,2013-10-17 06:27:00,
2013-10-17 02:33:00,56.4,54.9,29.89,SSW,213,4.0,5.0,95,0.00,,,0.00,0,HR-IXPWINDi_r2_v1.2.,2013-10-17 06:33:00,
2013-10-17 02:38:00,56.5,55.0,29.89,SSW,194,4.0,7.0,95,0.00,,,0.00,0,HR-IXPWINDi_r2_v1.2.,2013-10-17 06:38:00,
2013-10-17 02:43:00,56.5,55.0,29.89,SSW,205,7.0,7.0,95,0.00,,,0.00,0,HR-IXPWINDi_r2_v1.2.,2013-10-17 06:43:00,
2013-10-17 02:49:00,56.6,55.1,29.89,SSW,202,6.0,7.0,95,0.00,,,0.00,0,HR-IXPWINDi_r2_v1.2.,2013-10-17 06:49:00,
2013-10-17 02:54:00,56.6,55.1,29.89,SSW,200,7.0,8.0,95,0.00,,,0.00,0,HR-IXPWINDi_r2_v1.2.,2013-10-17 06:54:00,
2013-10-17 02:59:00,56.6,55.1,29.89,SSW,200,7.0,9.0,95,0.00,,,0.00,0,HR-IXPWINDi_r2_v1.2.,2013-10-17 06:59:00,
2013-10-17 03:04:00,56.6,55.1,29.89,SSW,198,7.0,9.0,95,0.00,,,0.00,0,HR-IXPWINDi_r2_v1.2.,2013-10-17 07:04:00,
2013-10-17 03:09:00,56.5,55.0,29.89,SSW,201,7.0,9.0,95,0.00,,,0.00,0,HR-IXPWINDi_r2_v1.2.,2013-10-17 07:09:00,
2013-10-17 03:15:00,56.3,54.8,29.89,SSW,206,7.0,10.0,95,0.00,,,0.00,0,HR-IXPWINDi_r2_v1.2.,2013-10-17 07:15:00,
2013-10-17 03:20:00,56.1,54.6,29.89,SSW,207,7.0,10.0,95,0.00,,,0.00,0,HR-IXPWINDi_r2_v1.2.,2013-10-17 07:20:00,
2013-10-17 03:25:00,55.9,54.4,29.88,SSW,209,6.0,9.0,95,0.00,,,0.00,0,HR-IXPWINDi_r2_v1.2.,2013-10-17 07:25:00,
2013-10-17 03:31:00,55.9,54.4,29.88,SSW,205,5.0,8.0,95,0.00,,,0.00,0,HR-IXPWINDi_r2_v1.2.,2013-10-17 07:31:00,
2013-10-17 03:36:00,55.9,54.4,29.88,SSW,206,6.0,7.0,95,0.00,,,0.00,0,HR-IXPWINDi_r2_v1.2.,2013-10-17 07:36:00,
2013-10-17 03:41:00,55.8,54.3,29.88,SSW,199,6.0,7.0,95,0.00,,,0.00,0,HR-IXPWINDi_r2_v1.2.,2013-10-17 07:41:00,
2013-10-17 03:47:00,55.8,54.3,29.88,SSW,194,7.0,7.0,95,0.00,,,0.00,0,HR-IXPWINDi_r2_v1.2.,2013-10-17 07:47:00,
2013-10-17 03:52:00,55.7,54.2,29.88,SSW,198,5.0,8.0,95,0.00,,,0.00,0,HR-IXPWINDi_r2_v1.2.,2013-10-17 07:52:00,
2013-10-17 03:58:00,55.8,54.3,29.88,South,188,5.0,8.0,95,0.00,,,0.00,0,HR-IXPWINDi_r2_v1.2.,2013-10-17 07:58:00,
2013-10-17 04:03:00,55.7,54.2,29.87,SSW,196,5.0,7.0,95,0.00,,,0.00,0,HR-IXPWINDi_r2_v1.2.,2013-10-17 08:03:00,
2013-10-17 04:09:00,55.6,54.1,29.87,South,188,6.0,7.0,95,0.00,,,0.00,0,HR-IXPWINDi_r2_v1.2.,2013-10-17 08:09:00,
2013-10-17 04:15:00,55.5,54.3,29.87,South,188,8.0,8.0,96,0.00,,,0.00,0,HR-IXPWINDi_r2_v1.2.,2013-10-17 08:15:00,
2013-10-17 04:21:00,55.4,54.2,29.87,South,183,7.0,8.0,96,0.00,,,0.00,0,HR-IXPWINDi_r2_v1.2.,2013-10-17 08:21:00,
2013-10-17 04:26:00,55.3,54.1,29.87,SSW,198,7.0,9.0,96,0.00,,,0.00,0,HR-IXPWINDi_r2_v1.2.,2013-10-17 08:26:00,
2013-10-17 04:31:00,55.4,54.2,29.87,South,185,7.0,9.0,96,0.00,,,0.00,0,HR-IXPWINDi_r2_v1.2.,2013-10-17 08:31:00,
2013-10-17 04:37:00,55.5,54.3,29.87,SSW,202,6.0,9.0,96,0.00,,,0.00,0,HR-IXPWINDi_r2_v1.2.,2013-10-17 08:37:00,
2013-10-17 04:42:00,55.6,54.4,29.87,SW,219,8.0,8.0,96,0.00,,,0.00,0,HR-IXPWINDi_r2_v1.2.,2013-10-17 08:42:00,
2013-10-17 04:48:00,55.7,54.5,29.87,SSW,199,8.0,10.0,96,0.00,,,0.00,0,HR-IXPWINDi_r2_v1.2.,2013-10-17 08:48:00,
2013-10-17 04:53:00,55.7,54.5,29.87,SSW,208,10.0,11.0,96,0.00,,,0.00,0,HR-IXPWINDi_r2_v1.2.,2013-10-17 08:53:00,
2013-10-17 04:58:00,55.6,54.4,29.86,South,190,9.0,11.0,96,0.00,,,0.00,0,HR-IXPWINDi_r2_v1.2.,2013-10-17 08:58:00,
2013-10-17 05:04:00,55.8,54.6,29.86,SSW,201,7.0,11.0,96,0.00,,,0.00,0,HR-IXPWINDi_r2_v1.2.,2013-10-17 09:04:00,
2013-10-17 05:09:00,56.0,54.8,29.86,SSW,197,8.0,9.0,96,0.00,,,0.00,0,HR-IXPWINDi_r2_v1.2.,2013-10-17 09:09:00,
2013-10-17 05:15:00,56.0,54.8,29.86,South,188,8.0,10.0,96,0.00,,,0.00,0,HR-IXPWINDi_r2_v1.2.,2013-10-17 09:15:00,
2013-10-17 05:20:00,56.1,54.9,29.86,South,190,9.0,10.0,96,0.00,,,0.00,0,HR-IXPWINDi_r2_v1.2.,2013-10-17 09:20:00,
2013-10-17 05:25:00,56.1,54.9,29.86,South,188,5.0,10.0,96,0.00,,,0.00,0,HR-IXPWINDi_r2_v1.2.,2013-10-17 09:25:00,
2013-10-17 05:30:00,56.1,54.9,29.85,South,189,9.0,10.0,96,0.00,,,0.00,0,HR-IXPWINDi_r2_v1.2.,2013-10-17 09:30:00,
2013-10-17 05:38:00,56.1,54.9,29.86,SSW,198,7.0,10.0,96,0.00,,,0.00,0,HR-IXPWINDi_r2_v1.2.,2013-10-17 09:38:00,
2013-10-17 05:43:00,56.1,54.9,29.86,SSW,196,7.0,9.0,96,0.00,,,0.00,0,HR-IXPWINDi_r2_v1.2.,2013-10-17 09:43:00,
2013-10-17 05:49:00,56.3,55.1,29.86,SSE,168,8.0,9.0,96,0.00,,,0.00,0,HR-IXPWINDi_r2_v1.2.,2013-10-17 09:49:00,
2013-10-17 05:54:00,56.4,55.2,29.85,South,181,9.0,10.0,96,0.00,,,0.00,0,HR-IXPWINDi_r2_v1.2.,2013-10-17 09:54:00,
2013-10-17 05:59:00,56.6,55.4,29.86,SSW,199,11.0,12.0,96,0.00,,,0.00,0,HR-IXPWINDi_r2_v1.2.,2013-10-17 09:59:00,
2013-10-17 06:04:00,56.7,55.5,29.85,SSW,203,9.0,12.0,96,0.00,,,0.00,0,HR-IXPWINDi_r2_v1.2.,2013-10-17 10:04:00,
2013-10-17 06:10:00,56.7,55.5,29.85,SSW,193,9.0,12.0,96,0.00,,,0.00,0,HR-IXPWINDi_r2_v1.2.,2013-10-17 10:10:00,
2013-10-17 06:15:00,56.8,55.6,29.85,South,191,9.0,12.0,96,0.00,,,0.00,0,HR-IXPWINDi_r2_v1.2.,2013-10-17 10:15:00,
2013-10-17 06:20:00,56.8,55.6,29.85,SSW,200,11.0,12.0,96,0.00,,,0.00,0,HR-IXPWINDi_r2_v1.2.,2013-10-17 10:20:00,
2013-10-17 06:26:00,56.9,55.7,29.85,South,178,13.0,14.0,96,0.00,,,0.00,0,HR-IXPWINDi_r2_v1.2.,2013-10-17 10:26:00,
2013-10-17 06:32:00,57.0,55.8,29.85,SSW,199,11.0,14.0,96,0.00,,,0.00,0,HR-IXPWINDi_r2_v1.2.,2013-10-17 10:32:00,
2013-10-17 06:37:00,57.0,55.5,29.85,SSW,192,12.0,15.0,95,0.00,,,0.00,0,HR-IXPWINDi_r2_v1.2.,2013-10-17 10:37:00,
2013-10-17 06:43:00,57.0,55.5,29.86,SSW,213,11.0,15.0,95,0.00,,,0.00,0,HR-IXPWINDi_r2_v1.2.,2013-10-17 10:43:00,
2013-10-17 06:48:00,57.1,55.6,29.86,SSW,201,12.0,15.0,95,0.00,,,0.00,0,HR-IXPWINDi_r2_v1.2.,2013-10-17 10:48:00,
2013-10-17 06:54:00,57.1,55.6,29.85,SSW,201,12.0,15.0,95,0.00,,,0.00,0,HR-IXPWINDi_r2_v1.2.,2013-10-17 10:54:00,
2013-10-17 06:59:00,-999.0,99.9,29.85,North,-999,-999.0,-999.0,-999,99.99,,,0.00,,HR-IXPWINDi_r2_v1.2.,2013-10-17 10:59:00,
2013-10-17 07:04:00,-999.0,99.9,29.85,North,-999,-999.0,-999.0,-999,99.99,,,0.00,,HR-IXPWINDi_r2_v1.2.,2013-10-17 11:04:00,
2013-10-17 07:10:00,-999.0,99.9,29.86,North,-999,-999.0,-999.0,-999,99.99,,,0.00,,HR-IXPWINDi_r2_v1.2.,2013-10-17 11:10:00,
2013-10-17 07:15:00,-999.0,99.9,29.86,North,-999,-999.0,-999.0,-999,99.99,,,0.00,,HR-IXPWINDi_r2_v1.2.,2013-10-17 11:15:00,
2013-10-17 07:21:00,-999.0,99.9,29.86,North,-999,-999.0,-999.0,-999,99.99,,,0.00,,HR-IXPWINDi_r2_v1.2.,2013-10-17 11:21:00,
2013-10-17 07:28:00,-999.0,99.9,29.86,North,-999,-999.0,-999.0,-999,99.99,,,0.00,,HR-IXPWINDi_r2_v1.2.,2013-10-17 11:28:00,
2013-10-17 07:34:00,-999.0,99.9,29.86,North,-999,-999.0,-999.0,-999,99.99,,,0.00,,HR-IXPWINDi_r2_v1.2.,2013-10-17 11:34:00,
2013-10-17 07:40:00,-999.0,99.9,29.86,North,-999,-999.0,-999.0,-999,99.99,,,0.00,,HR-IXPWINDi_r2_v1.2.,2013-10-17 11:40:00,
2013-10-17 07:45:00,-999.0,99.9,29.86,North,-999,-999.0,-999.0,-999,99.99,,,0.00,,HR-IXPWINDi_r2_v1.2.,2013-10-17 11:45:00,
2013-10-17 07:50:00,-999.0,99.9,29.86,North,-999,-999.0,-999.0,-999,99.99,,,0.00,,HR-IXPWINDi_r2_v1.2.,2013-10-17 11:50:00,
2013-10-17 07:56:00,-999.0,99.9,29.87,North,-999,-999.0,-999.0,-999,99.99,,,0.00,,HR-IXPWINDi_r2_v1.2.,2013-10-17 11:56:00,
2013-10-17 08:01:00,-999.0,99.9,29.87,North,-999,-999.0,-999.0,-999,99.99,,,0.00,,HR-IXPWINDi_r2_v1.2.,2013-10-17 12:01:00,
2013-10-17 08:07:00,-999.0,99.9,29.87,North,-999,-999.0,-999.0,-999,99.99,,,0.00,,HR-IXPWINDi_r2_v1.2.,2013-10-17 12:07:00,
2013-10-17 08:13:00,-999.0,99.9,29.86,North,-999,-999.0,-999.0,-999,99.99,,,0.00,,HR-IXPWINDi_r2_v1.2.,2013-10-17 12:13:00,
2013-10-17 08:19:00,-999.0,99.9,29.86,North,-999,-999.0,-999.0,-999,99.99,,,0.00,,HR-IXPWINDi_r2_v1.2.,2013-10-17 12:19:00,
2013-10-17 08:24:00,-999.0,99.9,29.87,North,-999,-999.0,-999.0,-999,99.99,,,0.00,,HR-IXPWINDi_r2_v1.2.,2013-10-17 12:24:00,
2013-10-17 08:30:00,-999.0,99.9,29.87,North,-999,-999.0,-999.0,-999,99.99,,,0.00,,HR-IXPWINDi_r2_v1.2.,2013-10-17 12:30:00,
2013-10-17 08:41:00,-999.0,99.9,29.86,North,-999,-999.0,-999.0,-999,99.99,,,0.00,,HR-IXPWINDi_r2_v1.2.,2013-10-17 12:41:00,
2013-10-17 08:47:00,-999.0,99.9,29.86,North,-999,-999.0,-999.0,-999,99.99,,,0.00,,HR-IXPWINDi_r2_v1.2.,2013-10-17 12:47:00,
2013-10-17 08:53:00,-999.0,99.9,29.86,North,-999,-999.0,-999.0,-999,99.99,,,0.00,,HR-IXPWINDi_r2_v1.2.,2013-10-17 12:53:00,
2013-10-17 09:04:00,-999.0,99.9,29.87,North,-999,-999.0,-999.0,-999,99.99,,,0.00,,HR-IXPWINDi_r2_v1.2.,2013-10-17 13:04:00,
2013-10-17 09:10:00,-999.0,99.9,29.87,North,-999,-999.0,-999.0,-999,99.99,,,0.00,,HR-IXPWINDi_r2_v1.2.,2013-10-17 13:10:00,
2013-10-17 09:18:00,-999.0,99.9,29.87,North,-999,-999.0,-999.0,-999,99.99,,,0.00,,HR-IXPWINDi_r2_v1.2.,2013-10-17 13:18:00,
2013-10-17 09:27:00,-999.0,99.9,29.87,North,-999,-999.0,-999.0,-999,99.99,,,0.00,,HR-IXPWINDi_r2_v1.2.,2013-10-17 13:27:00,
2013-10-17 09:40:00,-999.0,99.9,29.86,North,-999,-999.0,-999.0,-999,99.99,,,0.00,,HR-IXPWINDi_r2_v1.2.,2013-10-17 13:40:00,
2013-10-17 09:45:00,-999.0,99.9,29.86,North,-999,-999.0,-999.0,-999,99.99,,,0.00,,HR-IXPWINDi_r2_v1.2.,2013-10-17 13:45:00,
2013-10-17 21:42:00,61.5,59.1,29.76,South,183,5.0,7.0,92,0.00,,,0.00,0,HR-IXPWINDi_r2_v1.2.,2013-10-18 01:42:00,
2013-10-17 21:47:00,61.4,59.3,29.76,South,185,6.0,7.0,93,0.00,,,0.00,0,HR-IXPWINDi_r2_v1.2.,2013-10-18 01:47:00,
2013-10-17 21:52:00,61.4,59.3,29.75,South,182,5.0,7.0,93,0.00,,,0.00,0,HR-IXPWINDi_r2_v1.2.,2013-10-18 01:52:00,
2013-10-17 21:57:00,61.3,59.2,29.76,South,188,6.0,8.0,93,0.00,,,0.00,0,HR-IXPWINDi_r2_v1.2.,2013-10-18 01:57:00,
2013-10-17 22:03:00,61.3,59.2,29.76,South,186,6.0,8.0,93,0.00,,,0.00,0,HR-IXPWINDi_r2_v1.2.,2013-10-18 02:03:00,
2013-10-17 22:08:00,61.3,59.2,29.75,South,191,6.0,8.0,93,0.00,,,0.00,0,HR-IXPWINDi_r2_v1.2.,2013-10-18 02:08:00,
2013-10-17 22:14:00,61.2,59.1,29.75,South,181,7.0,8.0,93,0.00,,,0.00,0,HR-IXPWINDi_r2_v1.2.,2013-10-18 02:14:00,
2013-10-17 22:19:00,61.1,59.0,29.75,South,190,6.0,8.0,93,0.00,,,0.00,0,HR-IXPWINDi_r2_v1.2.,2013-10-18 02:19:00,
2013-10-17 22:24:00,61.1,59.0,29.75,SSW,207,7.0,9.0,93,0.00,,,0.00,0,HR-IXPWINDi_r2_v1.2.,2013-10-18 02:24:00,
2013-10-17 22:29:00,61.1,59.0,29.75,South,187,7.0,9.0,93,0.00,,,0.00,0,HR-IXPWINDi_r2_v1.2.,2013-10-18 02:29:00,
2013-10-17 22:34:00,61.0,58.9,29.74,SSW,197,6.0,9.0,93,0.00,,,0.00,0,HR-IXPWINDi_r2_v1.2.,2013-10-18 02:34:00,
2013-10-17 22:39:00,60.9,58.8,29.73,South,188,5.0,8.0,93,0.00,,,0.00,0,HR-IXPWINDi_r2_v1.2.,2013-10-18 02:39:00,
2013-10-17 22:44:00,60.9,59.1,29.73,South,186,9.0,9.0,94,0.00,,,0.00,0,HR-IXPWINDi_r2_v1.2.,2013-10-18 02:44:00,
2013-10-17 22:49:00,60.8,59.0,29.73,SSW,192,9.0,13.0,94,0.00,,,0.00,0,HR-IXPWINDi_r2_v1.2.,2013-10-18 02:49:00,
2013-10-17 22:54:00,60.8,59.0,29.73,SSW,198,9.0,15.0,94,0.00,,,0.00,0,HR-IXPWINDi_r2_v1.2.,2013-10-18 02:54:00,
2013-10-17 23:00:00,60.6,58.8,29.73,SSW,194,10.0,15.0,94,0.00,,,0.00,0,HR-IXPWINDi_r2_v1.2.,2013-10-18 03:00:00,
2013-10-17 23:05:00,60.6,58.8,29.73,SSW,194,10.0,14.0,94,0.00,,,0.00,0,HR-IXPWINDi_r2_v1.2.,2013-10-18 03:05:00,
2013-10-17 23:10:00,60.5,58.7,29.73,SSE,163,11.0,13.0,94,0.00,,,0.00,0,HR-IXPWINDi_r2_v1.2.,2013-10-18 03:10:00,
2013-10-17 23:15:00,60.5,58.7,29.73,South,191,13.0,13.0,94,0.00,,,0.00,0,HR-IXPWINDi_r2_v1.2.,2013-10-18 03:15:00,
2013-10-17 23:20:00,60.5,58.7,29.73,SSW,202,10.0,14.0,94,0.00,,,0.00,0,HR-IXPWINDi_r2_v1.2.,2013-10-18 03:20:00,
2013-10-17 23:26:00,60.5,58.7,29.73,SSW,204,10.0,15.0,94,0.00,,,0.00,0,HR-IXPWINDi_r2_v1.2.,2013-10-18 03:26:00,
2013-10-17 23:31:00,60.5,58.7,29.73,SSW,202,11.0,17.0,94,0.00,,,0.00,0,HR-IXPWINDi_r2_v1.2.,2013-10-18 03:31:00,
2013-10-17 23:36:00,60.5,58.7,29.72,SSW,200,10.0,17.0,94,0.00,,,0.00,0,HR-IXPWINDi_r2_v1.2.,2013-10-18 03:36:00,
2013-10-17 23:41:00,60.5,59.0,29.73,SSW,200,12.0,14.0,95,0.00,,,0.00,0,HR-IXPWINDi_r2_v1.2.,2013-10-18 03:41:00,
2013-10-17 23:46:00,60.5,59.0,29.73,SSW,198,10.0,16.0,95,0.00,,,0.00,0,HR-IXPWINDi_r2_v1.2.,2013-10-18 03:46:00,
2013-10-17 23:51:00,60.6,59.1,29.73,SSW,198,15.0,16.0,95,0.00,,,0.00,0,HR-IXPWINDi_r2_v1.2.,2013-10-18 03:51:00,
2013-10-17 23:56:00,60.6,59.1,29.73,SSE,167,14.0,16.0,95,0.00,,,0.00,0,HR-IXPWINDi_r2_v1.2.,2013-10-18 03:56:00,